createdAt,value
2023-02-15T00:00:50.495Z,8.50
2023-02-15T00:03:40.774Z,8.00
2023-02-15T00:06:29.373Z,7.20
2023-02-15T00:09:18.404Z,7.60
2023-02-15T00:12:07.188Z,8.00
2023-02-15T00:14:55.794Z,8.30
2023-02-15T00:17:44.232Z,8.40
2023-02-15T00:20:34.200Z,8.60
2023-02-15T00:23:22.694Z,8.60
2023-02-15T00:26:13.052Z,8.90
2023-02-15T00:29:02.065Z,8.90
2023-02-15T00:31:51.014Z,9.00
2023-02-15T00:34:39.554Z,8.70
2023-02-15T00:37:29.537Z,8.40
2023-02-15T00:40:18.214Z,8.50
2023-02-15T00:43:06.771Z,8.50
2023-02-15T00:45:55.384Z,7.90
2023-02-15T00:48:44.038Z,7.80
2023-02-15T00:51:32.856Z,7.90
2023-02-15T00:54:22.977Z,8.10
2023-02-15T00:57:11.501Z,8.50
2023-02-15T01:00:00.099Z,8.10
2023-02-15T01:02:48.622Z,8.00
2023-02-15T01:05:37.155Z,7.70
2023-02-15T01:08:25.986Z,7.50
2023-02-15T01:11:22.962Z,7.30
2023-02-15T01:14:12.058Z,7.40
2023-02-15T01:17:00.639Z,7.30
2023-02-15T01:19:49.187Z,7.40
2023-02-15T01:22:37.688Z,7.40
2023-02-15T01:25:27.141Z,7.80
2023-02-15T01:28:17.168Z,8.10
2023-02-15T01:31:09.840Z,7.90
2023-02-15T01:33:58.312Z,8.20
2023-02-15T01:36:46.870Z,8.50
2023-02-15T01:39:35.265Z,8.50
2023-02-15T01:42:24.683Z,7.90
2023-02-15T01:45:22.944Z,7.80
2023-02-15T01:48:23.387Z,7.50
2023-02-15T01:51:12.178Z,7.40
2023-02-15T01:54:05.120Z,7.60
2023-02-15T01:56:54.641Z,7.70
2023-02-15T01:59:47.033Z,7.30
2023-02-15T02:02:37.676Z,7.30
2023-02-15T02:05:26.369Z,7.40
2023-02-15T02:08:15.120Z,7.20
2023-02-15T02:11:03.749Z,7.30
2023-02-15T02:13:53.575Z,7.30
2023-02-15T02:16:52.072Z,7.00
2023-02-15T02:20:08.677Z,7.00
2023-02-15T02:23:21.873Z,7.40
2023-02-15T02:26:47.256Z,7.10
2023-02-15T02:30:04.767Z,7.20
2023-02-15T02:33:19.346Z,7.30
2023-02-15T02:36:17.786Z,7.60
2023-02-15T02:39:16.240Z,7.70
2023-02-15T02:42:09.742Z,7.80
2023-02-15T02:45:04.456Z,8.00
2023-02-15T02:47:57.911Z,8.30
2023-02-15T02:50:47.884Z,8.40
2023-02-15T02:53:36.916Z,8.60
2023-02-15T02:56:30.552Z,8.70
2023-02-15T02:59:22.913Z,8.70
2023-02-15T03:02:15.931Z,8.80
2023-02-15T03:05:09.682Z,8.80
2023-02-15T03:08:02.104Z,8.80
2023-02-15T03:10:53.824Z,8.80
2023-02-15T03:13:43.230Z,8.80
2023-02-15T03:16:32.116Z,8.80
2023-02-15T03:19:26.002Z,8.80
2023-02-15T03:22:20.519Z,8.80
2023-02-15T03:25:14.415Z,8.80
2023-02-15T03:28:08.786Z,8.80
2023-02-15T03:31:02.152Z,8.80
2023-02-15T03:33:56.876Z,8.80
2023-02-15T03:36:50.067Z,8.80
2023-02-15T03:39:42.196Z,8.80
2023-02-15T03:42:35.144Z,8.70
2023-02-15T03:45:29.207Z,8.70
2023-02-15T03:48:18.117Z,8.70
2023-02-15T03:51:27.647Z,8.60
2023-02-15T03:54:39.458Z,8.60
2023-02-15T03:57:47.869Z,8.60
2023-02-15T04:00:57.213Z,8.60
2023-02-15T04:03:51.957Z,8.50
2023-02-15T04:06:40.465Z,8.50
2023-02-15T04:09:46.171Z,8.50
2023-02-15T04:12:34.675Z,8.50
2023-02-15T04:15:40.322Z,8.30
2023-02-15T04:18:47.910Z,8.20
2023-02-15T04:21:53.878Z,8.30
2023-02-15T04:24:59.586Z,8.30
2023-02-15T04:27:50.956Z,8.20
2023-02-15T04:30:39.544Z,8.10
2023-02-15T04:33:29.417Z,8.20
2023-02-15T04:36:18.026Z,7.30
2023-02-15T04:39:07.260Z,7.20
2023-02-15T04:41:55.810Z,7.00
2023-02-15T04:44:44.530Z,7.20
2023-02-15T04:47:33.239Z,6.90
2023-02-15T04:50:23.206Z,7.00
2023-02-15T04:53:12.389Z,6.50
2023-02-15T04:56:01.159Z,6.10
2023-02-15T04:58:50.411Z,6.20
2023-02-15T05:01:38.918Z,6.60
2023-02-15T05:04:27.413Z,6.60
2023-02-15T05:07:17.498Z,6.00
2023-02-15T05:10:06.770Z,6.10
2023-02-15T05:12:55.350Z,5.90
2023-02-15T05:15:44.962Z,6.10
2023-02-15T05:18:33.721Z,6.40
2023-02-15T05:21:22.287Z,6.70
2023-02-15T05:24:26.140Z,6.90
2023-02-15T05:27:32.091Z,7.10
2023-02-15T05:30:20.867Z,7.30
2023-02-15T05:33:09.990Z,7.40
2023-02-15T05:35:58.455Z,7.30
2023-02-15T05:38:47.073Z,7.00
2023-02-15T05:41:37.032Z,6.90
2023-02-15T05:44:25.609Z,6.70
2023-02-15T05:47:14.242Z,6.40
2023-02-15T05:50:02.816Z,6.60
2023-02-15T05:52:52.514Z,6.70
2023-02-15T05:55:41.455Z,6.40
2023-02-15T05:58:34.216Z,6.60
2023-02-15T06:01:23.930Z,6.70
2023-02-15T06:04:12.661Z,6.90
2023-02-15T06:07:01.167Z,7.20
2023-02-15T06:09:49.629Z,7.10
2023-02-15T06:12:38.160Z,6.40
2023-02-15T06:15:28.192Z,6.50
2023-02-15T06:18:16.715Z,6.70
2023-02-15T06:21:05.270Z,6.70
2023-02-15T06:23:53.749Z,6.60
2023-02-15T06:26:42.315Z,6.70
2023-02-15T06:29:30.885Z,6.80
2023-02-15T06:32:20.920Z,6.90
2023-02-15T06:35:10.077Z,7.00
2023-02-15T06:37:58.676Z,6.80
2023-02-15T06:40:47.279Z,6.50
2023-02-15T06:43:35.989Z,6.40
2023-02-15T06:46:24.545Z,6.30
2023-02-15T06:49:14.588Z,5.90
2023-02-15T06:54:51.869Z,5.40
2023-02-15T06:57:40.491Z,5.50
2023-02-15T07:00:29.109Z,5.70
2023-02-15T07:03:17.625Z,6.10
2023-02-15T07:06:09.527Z,6.00
2023-02-15T07:08:58.057Z,6.00
2023-02-15T07:12:03.899Z,6.10
2023-02-15T07:14:52.703Z,6.30
2023-02-15T07:17:41.272Z,6.60
2023-02-15T07:20:30.042Z,6.90
2023-02-15T07:23:19.994Z,7.10
2023-02-15T07:26:09.973Z,7.60
2023-02-15T07:28:58.490Z,7.80
2023-02-15T07:31:46.988Z,8.00
2023-02-15T07:34:35.500Z,8.30
2023-02-15T07:37:24.258Z,7.70
2023-02-15T07:40:14.573Z,7.30
2023-02-15T07:43:03.156Z,7.50
2023-02-15T07:45:51.780Z,7.70
2023-02-15T07:48:41.600Z,7.70
2023-02-15T07:51:30.130Z,8.20
2023-02-15T07:54:19.016Z,8.60
2023-02-15T07:57:08.959Z,9.00
2023-02-15T07:59:57.456Z,9.30
2023-02-15T08:03:10.499Z,9.70
2023-02-15T08:06:01.150Z,10.00
2023-02-15T08:08:49.982Z,10.30
2023-02-15T08:11:40.849Z,10.50
2023-02-15T08:14:30.816Z,10.80
2023-02-15T08:17:19.299Z,10.90
2023-02-15T08:20:09.581Z,11.00
2023-02-15T08:22:58.212Z,11.10
2023-02-15T08:25:46.752Z,11.30
2023-02-15T08:28:35.209Z,11.40
2023-02-15T08:31:25.425Z,11.40
2023-02-15T08:34:17.106Z,11.20
2023-02-15T08:37:06.980Z,11.20
2023-02-15T08:39:55.768Z,11.00
2023-02-15T08:42:44.373Z,10.90
2023-02-15T08:45:32.914Z,10.90
2023-02-15T08:48:22.943Z,10.90
2023-02-15T08:51:13.246Z,10.90
2023-02-15T08:54:04.692Z,11.00
2023-02-15T08:56:53.508Z,11.10
2023-02-15T08:59:42.063Z,11.10
2023-02-15T09:02:30.699Z,11.20
2023-02-15T09:05:20.740Z,11.30
2023-02-15T09:08:09.225Z,11.20
2023-02-15T09:11:08.042Z,11.20
2023-02-15T09:13:58.611Z,11.30
2023-02-15T09:16:49.885Z,11.40
2023-02-15T09:19:38.548Z,11.40
2023-02-15T09:22:28.643Z,11.50
2023-02-15T09:25:17.273Z,11.60
2023-02-15T09:28:05.916Z,11.70
2023-02-15T09:30:55.153Z,11.80
2023-02-15T09:33:44.813Z,11.90
2023-02-15T09:36:34.765Z,12.00
2023-02-15T09:39:25.984Z,12.00
2023-02-15T09:42:44.180Z,12.00
2023-02-15T09:45:54.897Z,12.10
2023-02-15T09:48:46.234Z,12.00
2023-02-15T09:52:04.633Z,12.10
2023-02-15T09:55:11.076Z,12.10
2023-02-15T09:58:09.068Z,12.30
2023-02-15T10:01:06.330Z,12.50
2023-02-15T10:04:12.208Z,12.70
2023-02-15T10:07:12.842Z,12.90
2023-02-15T10:10:18.945Z,13.10
2023-02-15T10:13:26.784Z,13.30
2023-02-15T10:16:24.771Z,13.40
2023-02-15T10:19:20.184Z,13.60
2023-02-15T10:22:23.280Z,13.70
2023-02-15T10:25:32.856Z,13.80
2023-02-15T10:28:24.789Z,13.90
2023-02-15T10:31:24.546Z,14.10
2023-02-15T10:34:19.995Z,14.30
2023-02-15T10:37:44.844Z,14.50
2023-02-15T10:40:44.319Z,14.60
2023-02-15T10:43:46.292Z,14.80
2023-02-15T10:46:51.355Z,14.90
2023-02-15T10:50:03.526Z,14.90
2023-02-15T10:53:06.124Z,15.00
2023-02-15T10:56:04.898Z,15.10
2023-02-15T10:59:09.953Z,15.20
2023-02-15T11:02:04.473Z,15.30
2023-02-15T11:05:04.557Z,15.40
2023-02-15T11:07:56.241Z,15.70
2023-02-15T11:10:48.628Z,15.80
2023-02-15T11:13:42.148Z,16.00
2023-02-15T11:16:34.332Z,15.90
2023-02-15T11:19:26.265Z,15.80
2023-02-15T11:22:17.104Z,15.90
2023-02-15T11:25:19.507Z,16.10
2023-02-15T11:28:20.300Z,16.30
2023-02-15T11:31:19.649Z,16.50
2023-02-15T11:34:15.461Z,16.80
2023-02-15T11:39:57.777Z,17.30
2023-02-15T11:42:47.359Z,17.50
2023-02-15T11:45:37.139Z,17.70
2023-02-15T11:48:27.141Z,17.90
2023-02-15T11:51:21.614Z,18.10
2023-02-15T11:54:12.161Z,18.30
2023-02-15T11:57:05.849Z,18.40
2023-02-15T12:00:00.456Z,18.60
2023-02-15T12:02:55.465Z,18.50
2023-02-15T12:05:49.238Z,18.60
2023-02-15T12:08:41.668Z,18.60
2023-02-15T12:11:35.666Z,18.70
2023-02-15T12:17:16.262Z,19.10
2023-02-15T12:20:07.080Z,19.30
2023-02-15T12:23:04.097Z,19.50
2023-02-15T12:25:55.675Z,19.60
2023-02-15T12:28:46.814Z,19.60
2023-02-15T12:31:41.219Z,19.70
2023-02-15T12:37:25.146Z,20.00
2023-02-15T12:40:26.800Z,20.20
2023-02-15T12:43:28.049Z,20.40
2023-02-15T12:46:27.485Z,20.70
2023-02-15T12:49:21.124Z,20.30
2023-02-15T12:52:27.344Z,20.20
2023-02-15T12:55:26.502Z,20.20
2023-02-15T12:58:19.504Z,20.50
2023-02-15T13:01:16.539Z,20.60
2023-02-15T13:04:08.194Z,20.70
2023-02-15T13:07:01.112Z,20.70
2023-02-15T13:12:40.419Z,21.00
2023-02-15T13:15:34.928Z,21.00
2023-02-15T13:18:32.781Z,21.10
2023-02-15T13:21:25.853Z,21.20
2023-02-15T13:24:22.345Z,21.30
2023-02-15T13:27:16.492Z,21.30
2023-02-15T13:30:20.580Z,21.40
2023-02-15T13:33:16.510Z,21.40
2023-02-15T13:36:15.669Z,21.40
2023-02-15T13:39:19.950Z,21.40
2023-02-15T13:42:22.154Z,21.50
2023-02-15T13:45:27.534Z,21.50
2023-02-15T13:48:23.094Z,21.30
2023-02-15T13:51:17.979Z,21.00
2023-02-15T13:54:35.176Z,21.10
2023-02-15T13:57:55.377Z,21.20
2023-02-15T14:00:51.135Z,21.20
2023-02-15T14:04:01.570Z,21.20
2023-02-15T14:07:07.938Z,21.20
2023-02-15T14:10:14.728Z,21.20
2023-02-15T14:13:38.915Z,21.10
2023-02-15T14:16:38.277Z,21.10
2023-02-15T14:19:31.763Z,21.10
2023-02-15T14:22:28.046Z,21.00
2023-02-15T14:25:22.504Z,21.00
2023-02-15T14:28:16.922Z,21.00
2023-02-15T14:31:08.005Z,21.10
2023-02-15T14:33:59.830Z,20.90
2023-02-15T14:36:48.940Z,20.90
2023-02-15T14:48:40.356Z,20.60
2023-02-15T14:51:59.927Z,20.60
2023-02-15T14:55:00.101Z,20.50
2023-02-15T14:58:00.764Z,20.40
2023-02-15T15:00:49.311Z,20.10
2023-02-15T15:03:38.658Z,20.00
2023-02-15T15:06:29.481Z,20.00
2023-02-15T15:15:15.014Z,19.70
2023-02-15T15:18:06.249Z,19.60
2023-02-15T15:20:54.797Z,19.40
2023-02-15T15:23:47.092Z,19.20
2023-02-15T15:26:41.750Z,19.10
2023-02-15T15:29:42.197Z,19.00
2023-02-15T15:32:34.103Z,18.80
2023-02-15T15:35:30.254Z,18.60
2023-02-15T15:38:34.225Z,18.40
2023-02-15T15:41:34.373Z,18.20
2023-02-15T15:44:51.749Z,18.20
2023-02-15T15:48:14.430Z,18.30
2023-02-15T15:51:07.724Z,18.00
2023-02-15T15:53:57.087Z,17.80
2023-02-15T15:56:49.828Z,17.60
2023-02-15T15:59:46.950Z,17.50
2023-02-15T16:02:35.389Z,18.30
2023-02-15T16:05:24.060Z,17.30
2023-02-15T16:08:12.525Z,17.10
2023-02-15T16:11:02.456Z,17.00
2023-02-15T16:13:51.091Z,17.00
2023-02-15T16:16:41.464Z,16.80
2023-02-15T16:19:32.208Z,16.70
2023-02-15T16:22:23.838Z,16.60
2023-02-15T16:25:32.361Z,16.60
2023-02-15T16:28:21.265Z,16.50
2023-02-15T16:31:14.479Z,16.40
2023-02-15T16:34:18.241Z,16.30
2023-02-15T16:37:17.595Z,16.20
2023-02-15T16:40:07.300Z,16.30
2023-02-15T16:43:01.576Z,16.30
2023-02-15T16:45:50.382Z,16.30
2023-02-15T16:48:43.978Z,16.20
2023-02-15T16:51:36.266Z,16.00
2023-02-15T16:54:26.456Z,15.80
2023-02-15T16:57:21.970Z,15.70
2023-02-15T17:00:21.689Z,15.60
2023-02-15T17:03:24.193Z,15.60
2023-02-15T17:06:23.712Z,15.50
2023-02-15T17:09:20.670Z,15.40
2023-02-15T17:12:11.638Z,15.30
2023-02-15T17:15:00.175Z,15.30
2023-02-15T17:17:50.071Z,15.20
2023-02-15T17:20:42.783Z,15.10
2023-02-15T17:23:33.559Z,15.10
2023-02-15T17:26:26.383Z,15.00
2023-02-15T17:29:24.866Z,14.90
2023-02-15T17:32:20.832Z,14.80
2023-02-15T17:35:21.302Z,14.70
2023-02-15T17:38:20.658Z,14.70
2023-02-15T17:41:09.870Z,14.70
2023-02-15T17:44:00.059Z,14.60
2023-02-15T17:46:48.601Z,14.50
2023-02-15T17:49:38.096Z,14.60
2023-02-15T17:52:30.490Z,14.70
2023-02-15T17:55:38.509Z,14.60
2023-02-15T17:58:27.171Z,14.50
2023-02-15T18:04:44.051Z,14.40
2023-02-15T18:07:49.986Z,14.20
2023-02-15T18:10:55.816Z,14.00
2023-02-15T18:13:44.579Z,13.80
2023-02-15T18:16:36.503Z,13.80
2023-02-15T18:19:27.175Z,13.80
2023-02-15T18:22:18.736Z,13.80
2023-02-15T18:25:10.916Z,13.70
2023-02-15T18:27:59.455Z,13.80
2023-02-15T18:30:48.331Z,13.80
2023-02-15T18:33:41.365Z,13.90
2023-02-15T18:36:33.262Z,13.70
2023-02-15T18:39:28.046Z,13.60
2023-02-15T18:42:22.211Z,13.60
2023-02-15T18:45:16.991Z,13.60
2023-02-15T18:48:08.339Z,13.70
2023-02-15T18:50:58.329Z,13.50
2023-02-15T18:53:47.976Z,13.50
2023-02-15T19:16:29.505Z,12.80
2023-02-15T19:19:18.029Z,12.40
2023-02-15T19:22:06.589Z,12.50
2023-02-15T19:24:58.627Z,12.10
2023-02-15T19:27:47.473Z,12.20
2023-02-15T19:30:36.007Z,12.20
2023-02-15T19:33:24.480Z,12.00
2023-02-15T19:36:18.615Z,11.90
2023-02-15T19:39:07.228Z,11.90
2023-02-15T19:41:57.243Z,11.80
2023-02-15T19:44:45.793Z,11.80
2023-02-15T19:47:34.378Z,11.60
2023-02-15T19:50:25.591Z,11.40
2023-02-15T19:53:23.675Z,11.50
2023-02-15T19:56:14.150Z,11.30
2023-02-15T19:59:04.666Z,11.30
2023-02-15T20:01:53.656Z,11.30
2023-02-15T20:04:42.424Z,11.00
2023-02-15T20:07:30.987Z,10.90
2023-02-15T20:10:21.419Z,10.90
2023-02-15T20:13:15.534Z,11.20
2023-02-15T20:16:08.234Z,10.70
2023-02-15T20:18:56.719Z,10.70
2023-02-15T20:21:51.687Z,10.70
2023-02-15T20:24:40.229Z,10.90
2023-02-15T20:27:28.915Z,11.00
2023-02-15T20:30:19.810Z,11.10
2023-02-15T20:33:09.748Z,11.20
2023-02-15T20:35:59.724Z,11.40
2023-02-15T20:38:49.014Z,11.20
2023-02-15T20:41:37.657Z,11.00
2023-02-15T20:44:29.044Z,10.80
2023-02-15T20:47:17.531Z,11.00
2023-02-15T20:50:08.418Z,11.40
2023-02-15T20:52:58.967Z,11.50
2023-02-15T20:55:48.011Z,11.70
2023-02-15T20:58:36.802Z,11.70
2023-02-15T21:01:25.593Z,11.70
2023-02-15T21:04:18.980Z,11.70
2023-02-15T21:07:12.031Z,11.80
2023-02-15T21:10:01.080Z,11.60
2023-02-15T21:12:50.758Z,10.90
2023-02-15T21:15:40.431Z,10.70
2023-02-15T21:18:31.091Z,10.60
2023-02-15T21:21:23.717Z,10.50
2023-02-15T21:24:16.913Z,10.70
2023-02-15T21:27:07.681Z,10.50
2023-02-15T21:29:56.402Z,10.40
2023-02-15T21:32:44.918Z,10.50
2023-02-15T21:35:33.536Z,10.70
2023-02-15T21:38:24.866Z,10.90
2023-02-15T21:41:35.360Z,10.80
2023-02-15T21:44:42.608Z,10.70
2023-02-15T21:47:50.259Z,10.70
2023-02-15T21:50:56.700Z,10.40
2023-02-15T21:53:47.595Z,10.50
2023-02-15T21:56:37.479Z,10.70
2023-02-15T21:59:28.257Z,10.90
2023-02-15T22:02:28.031Z,11.00
2023-02-15T22:05:19.036Z,11.10
2023-02-15T22:08:14.050Z,11.20
2023-02-15T22:11:02.960Z,11.10
2023-02-15T22:13:53.232Z,11.20
2023-02-15T22:16:41.903Z,11.20
2023-02-15T22:19:30.814Z,11.10
2023-02-15T22:22:19.650Z,10.70
2023-02-15T22:25:08.639Z,10.80
2023-02-15T22:27:57.184Z,10.90
2023-02-15T22:30:47.110Z,11.00
2023-02-15T22:33:36.089Z,10.90
2023-02-15T22:36:26.744Z,9.90
2023-02-15T22:39:15.272Z,9.80
2023-02-15T22:42:04.150Z,10.00
2023-02-15T22:44:54.640Z,9.90
2023-02-15T22:47:44.814Z,9.90
2023-02-15T22:50:35.884Z,10.20
2023-02-15T22:53:26.100Z,10.50
2023-02-15T22:56:20.229Z,10.60
2023-02-15T22:59:15.460Z,10.70
2023-02-15T23:02:06.482Z,10.70
2023-02-15T23:04:56.573Z,10.20
2023-02-15T23:07:45.219Z,9.80
2023-02-15T23:10:33.777Z,9.90
2023-02-15T23:13:26.302Z,10.20
2023-02-15T23:16:17.433Z,10.30
2023-02-15T23:19:07.763Z,9.20
2023-02-15T23:21:57.676Z,9.30
2023-02-15T23:24:49.840Z,9.70
2023-02-15T23:27:55.754Z,9.80
2023-02-15T23:30:44.322Z,10.00
2023-02-15T23:33:35.334Z,10.20
2023-02-15T23:36:27.376Z,10.30
2023-02-15T23:39:36.873Z,10.20
2023-02-15T23:42:28.988Z,10.20
2023-02-15T23:45:23.726Z,10.30
2023-02-15T23:48:33.453Z,10.30
2023-02-15T23:51:23.032Z,10.30
2023-02-15T23:54:11.934Z,10.20
2023-02-15T23:57:03.124Z,10.20
2023-02-15T23:59:51.721Z,10.20
